sensor_id;sensor_type;location;lat;lon;timestamp;P1;durP1;ratioP1;P2;durP2;ratioP2
64938;SDS011;51453;47.738;7.420;2023-10-19T00:00:38;27.15;;;18.08;;
64938;SDS011;51453;47.738;7.420;2023-10-19T00:03:05;25.10;;;17.90;;
64938;SDS011;51453;47.738;7.420;2023-10-19T00:05:34;26.15;;;17.40;;
64938;SDS011;51453;47.738;7.420;2023-10-19T00:08:04;30.85;;;17.52;;
64938;SDS011;51453;47.738;7.420;2023-10-19T00:10:41;27.65;;;16.80;;
64938;SDS011;51453;47.738;7.420;2023-10-19T00:13:08;23.98;;;16.63;;
64938;SDS011;51453;47.738;7.420;2023-10-19T00:15:36;22.38;;;16.48;;
64938;SDS011;51453;47.738;7.420;2023-10-19T00:18:12;21.58;;;15.48;;
64938;SDS011;51453;47.738;7.420;2023-10-19T00:20:44;25.67;;;16.25;;
64938;SDS011;51453;47.738;7.420;2023-10-19T00:23:14;24.20;;;15.57;;
64938;SDS011;51453;47.738;7.420;2023-10-19T00:26:02;23.60;;;15.50;;
64938;SDS011;51453;47.738;7.420;2023-10-19T00:28:45;20.63;;;15.40;;
64938;SDS011;51453;47.738;7.420;2023-10-19T00:31:13;21.50;;;15.02;;
64938;SDS011;51453;47.738;7.420;2023-10-19T00:33:39;22.17;;;15.00;;
64938;SDS011;51453;47.738;7.420;2023-10-19T00:36:08;21.85;;;14.60;;
64938;SDS011;51453;47.738;7.420;2023-10-19T00:38:38;19.15;;;14.10;;
64938;SDS011;51453;47.738;7.420;2023-10-19T00:41:08;22.30;;;14.60;;
64938;SDS011;51453;47.738;7.420;2023-10-19T00:43:35;19.13;;;13.82;;
64938;SDS011;51453;47.738;7.420;2023-10-19T00:46:03;18.58;;;13.50;;
64938;SDS011;51453;47.738;7.420;2023-10-19T00:48:32;17.63;;;14.30;;
64938;SDS011;51453;47.738;7.420;2023-10-19T00:51:00;21.95;;;14.95;;
64938;SDS011;51453;47.738;7.420;2023-10-19T00:53:37;19.70;;;14.43;;
64938;SDS011;51453;47.738;7.420;2023-10-19T00:56:04;22.08;;;14.73;;
64938;SDS011;51453;47.738;7.420;2023-10-19T00:58:34;23.40;;;14.43;;
64938;SDS011;51453;47.738;7.420;2023-10-19T01:01:04;21.02;;;14.57;;
64938;SDS011;51453;47.738;7.420;2023-10-19T01:03:31;25.55;;;15.07;;
64938;SDS011;51453;47.738;7.420;2023-10-19T01:06:01;22.95;;;14.90;;
64938;SDS011;51453;47.738;7.420;2023-10-19T01:08:30;22.30;;;15.50;;
64938;SDS011;51453;47.738;7.420;2023-10-19T01:11:06;19.95;;;13.93;;
64938;SDS011;51453;47.738;7.420;2023-10-19T01:13:37;20.20;;;14.27;;
64938;SDS011;51453;47.738;7.420;2023-10-19T01:16:16;24.25;;;14.55;;
64938;SDS011;51453;47.738;7.420;2023-10-19T01:18:49;19.02;;;14.23;;
64938;SDS011;51453;47.738;7.420;2023-10-19T01:21:19;20.00;;;14.05;;
64938;SDS011;51453;47.738;7.420;2023-10-19T01:24:01;20.48;;;13.40;;
64938;SDS011;51453;47.738;7.420;2023-10-19T01:26:26;20.00;;;14.48;;
64938;SDS011;51453;47.738;7.420;2023-10-19T01:28:52;20.17;;;14.20;;
64938;SDS011;51453;47.738;7.420;2023-10-19T01:31:32;19.67;;;13.75;;
64938;SDS011;51453;47.738;7.420;2023-10-19T01:39:19;22.70;;;15.35;;
64938;SDS011;51453;47.738;7.420;2023-10-19T01:41:45;21.25;;;14.02;;
64938;SDS011;51453;47.738;7.420;2023-10-19T01:44:11;22.05;;;15.20;;
64938;SDS011;51453;47.738;7.420;2023-10-19T01:46:40;20.73;;;14.48;;
64938;SDS011;51453;47.738;7.420;2023-10-19T01:49:08;21.83;;;14.98;;
64938;SDS011;51453;47.738;7.420;2023-10-19T01:51:35;22.75;;;15.75;;
64938;SDS011;51453;47.738;7.420;2023-10-19T01:54:03;21.85;;;15.23;;
64938;SDS011;51453;47.738;7.420;2023-10-19T01:56:32;23.88;;;15.50;;
64938;SDS011;51453;47.738;7.420;2023-10-19T01:59:00;22.80;;;15.95;;
64938;SDS011;51453;47.738;7.420;2023-10-19T02:01:29;26.25;;;15.32;;
64938;SDS011;51453;47.738;7.420;2023-10-19T02:04:00;23.13;;;16.00;;
64938;SDS011;51453;47.738;7.420;2023-10-19T02:06:29;22.33;;;15.55;;
64938;SDS011;51453;47.738;7.420;2023-10-19T02:09:11;21.65;;;15.45;;
64938;SDS011;51453;47.738;7.420;2023-10-19T02:11:56;23.27;;;16.33;;
64938;SDS011;51453;47.738;7.420;2023-10-19T02:14:23;19.75;;;14.80;;
64938;SDS011;51453;47.738;7.420;2023-10-19T02:16:54;21.55;;;14.85;;
64938;SDS011;51453;47.738;7.420;2023-10-19T02:19:25;22.75;;;15.80;;
64938;SDS011;51453;47.738;7.420;2023-10-19T02:21:52;21.65;;;15.73;;
64938;SDS011;51453;47.738;7.420;2023-10-19T02:24:20;20.50;;;15.40;;
64938;SDS011;51453;47.738;7.420;2023-10-19T02:26:48;19.05;;;14.55;;
64938;SDS011;51453;47.738;7.420;2023-10-19T02:29:18;21.08;;;15.43;;
64938;SDS011;51453;47.738;7.420;2023-10-19T02:31:44;19.90;;;15.00;;
64938;SDS011;51453;47.738;7.420;2023-10-19T02:34:12;22.60;;;15.98;;
64938;SDS011;51453;47.738;7.420;2023-10-19T02:36:40;21.65;;;14.98;;
64938;SDS011;51453;47.738;7.420;2023-10-19T02:39:10;21.60;;;15.32;;
64938;SDS011;51453;47.738;7.420;2023-10-19T02:41:39;21.92;;;15.70;;
64938;SDS011;51453;47.738;7.420;2023-10-19T02:44:11;23.50;;;16.63;;
64938;SDS011;51453;47.738;7.420;2023-10-19T02:46:41;21.10;;;16.00;;
64938;SDS011;51453;47.738;7.420;2023-10-19T02:49:07;18.75;;;15.05;;
64938;SDS011;51453;47.738;7.420;2023-10-19T02:51:38;20.77;;;15.60;;
64938;SDS011;51453;47.738;7.420;2023-10-19T02:54:05;24.33;;;15.27;;
64938;SDS011;51453;47.738;7.420;2023-10-19T02:56:34;23.17;;;15.10;;
64938;SDS011;51453;47.738;7.420;2023-10-19T02:59:01;20.63;;;15.68;;
64938;SDS011;51453;47.738;7.420;2023-10-19T03:01:31;21.40;;;15.68;;
64938;SDS011;51453;47.738;7.420;2023-10-19T03:03:58;22.38;;;16.45;;
64938;SDS011;51453;47.738;7.420;2023-10-19T03:06:29;20.90;;;15.13;;
64938;SDS011;51453;47.738;7.420;2023-10-19T03:08:59;19.90;;;14.73;;
64938;SDS011;51453;47.738;7.420;2023-10-19T03:11:38;20.25;;;14.85;;
64938;SDS011;51453;47.738;7.420;2023-10-19T03:14:06;22.52;;;15.90;;
64938;SDS011;51453;47.738;7.420;2023-10-19T03:16:32;20.33;;;14.77;;
64938;SDS011;51453;47.738;7.420;2023-10-19T03:18:59;20.40;;;15.00;;
64938;SDS011;51453;47.738;7.420;2023-10-19T03:21:25;22.92;;;15.73;;
64938;SDS011;51453;47.738;7.420;2023-10-19T03:23:57;20.15;;;15.75;;
64938;SDS011;51453;47.738;7.420;2023-10-19T03:26:26;21.45;;;15.93;;
64938;SDS011;51453;47.738;7.420;2023-10-19T03:29:02;22.55;;;15.80;;
64938;SDS011;51453;47.738;7.420;2023-10-19T03:31:37;28.20;;;16.42;;
64938;SDS011;51453;47.738;7.420;2023-10-19T03:34:10;21.02;;;15.65;;
64938;SDS011;51453;47.738;7.420;2023-10-19T03:36:38;21.02;;;15.98;;
64938;SDS011;51453;47.738;7.420;2023-10-19T03:39:04;21.35;;;16.35;;
64938;SDS011;51453;47.738;7.420;2023-10-19T03:41:39;25.42;;;15.70;;
64938;SDS011;51453;47.738;7.420;2023-10-19T03:44:07;20.92;;;15.75;;
64938;SDS011;51453;47.738;7.420;2023-10-19T03:46:39;21.42;;;15.60;;
64938;SDS011;51453;47.738;7.420;2023-10-19T03:49:17;22.88;;;15.82;;
64938;SDS011;51453;47.738;7.420;2023-10-19T03:51:50;22.55;;;16.10;;
64938;SDS011;51453;47.738;7.420;2023-10-19T03:54:45;21.45;;;15.75;;
64938;SDS011;51453;47.738;7.420;2023-10-19T03:57:13;20.55;;;15.77;;
64938;SDS011;51453;47.738;7.420;2023-10-19T03:59:44;27.48;;;16.80;;
64938;SDS011;51453;47.738;7.420;2023-10-19T04:02:10;24.50;;;16.85;;
64938;SDS011;51453;47.738;7.420;2023-10-19T04:04:41;21.50;;;16.55;;
64938;SDS011;51453;47.738;7.420;2023-10-19T04:07:11;27.48;;;16.35;;
64938;SDS011;51453;47.738;7.420;2023-10-19T04:09:49;23.50;;;16.33;;
64938;SDS011;51453;47.738;7.420;2023-10-19T04:12:37;19.98;;;15.30;;
64938;SDS011;51453;47.738;7.420;2023-10-19T04:15:07;21.75;;;16.15;;
64938;SDS011;51453;47.738;7.420;2023-10-19T04:17:47;26.15;;;16.08;;
64938;SDS011;51453;47.738;7.420;2023-10-19T04:20:15;20.50;;;16.10;;
64938;SDS011;51453;47.738;7.420;2023-10-19T04:22:42;24.50;;;16.30;;
64938;SDS011;51453;47.738;7.420;2023-10-19T04:25:08;20.73;;;16.08;;
64938;SDS011;51453;47.738;7.420;2023-10-19T04:27:37;27.95;;;17.52;;
64938;SDS011;51453;47.738;7.420;2023-10-19T04:30:07;23.02;;;16.48;;
64938;SDS011;51453;47.738;7.420;2023-10-19T04:32:40;24.73;;;17.05;;
64938;SDS011;51453;47.738;7.420;2023-10-19T04:35:10;26.50;;;17.35;;
64938;SDS011;51453;47.738;7.420;2023-10-19T04:37:39;23.30;;;15.75;;
64938;SDS011;51453;47.738;7.420;2023-10-19T04:40:10;21.27;;;16.23;;
64938;SDS011;51453;47.738;7.420;2023-10-19T04:42:37;21.80;;;15.85;;
64938;SDS011;51453;47.738;7.420;2023-10-19T04:45:03;28.58;;;19.13;;
64938;SDS011;51453;47.738;7.420;2023-10-19T04:47:30;26.02;;;17.77;;
64938;SDS011;51453;47.738;7.420;2023-10-19T04:50:01;21.73;;;16.42;;
64938;SDS011;51453;47.738;7.420;2023-10-19T04:52:27;23.17;;;16.42;;
64938;SDS011;51453;47.738;7.420;2023-10-19T04:54:53;21.98;;;16.42;;
64938;SDS011;51453;47.738;7.420;2023-10-19T04:57:19;26.38;;;17.05;;
64938;SDS011;51453;47.738;7.420;2023-10-19T04:59:46;22.55;;;16.10;;
64938;SDS011;51453;47.738;7.420;2023-10-19T05:02:12;20.25;;;15.80;;
64938;SDS011;51453;47.738;7.420;2023-10-19T05:04:37;23.92;;;16.40;;
64938;SDS011;51453;47.738;7.420;2023-10-19T05:07:03;25.52;;;17.52;;
64938;SDS011;51453;47.738;7.420;2023-10-19T05:09:29;23.60;;;15.80;;
64938;SDS011;51453;47.738;7.420;2023-10-19T05:11:57;23.40;;;16.65;;
64938;SDS011;51453;47.738;7.420;2023-10-19T05:14:22;24.98;;;16.27;;
64938;SDS011;51453;47.738;7.420;2023-10-19T05:16:48;28.48;;;17.23;;
64938;SDS011;51453;47.738;7.420;2023-10-19T05:19:14;24.02;;;16.98;;
64938;SDS011;51453;47.738;7.420;2023-10-19T05:21:40;24.98;;;17.35;;
64938;SDS011;51453;47.738;7.420;2023-10-19T05:24:06;23.90;;;16.33;;
64938;SDS011;51453;47.738;7.420;2023-10-19T05:26:35;25.45;;;16.75;;
64938;SDS011;51453;47.738;7.420;2023-10-19T05:29:00;26.55;;;17.15;;
64938;SDS011;51453;47.738;7.420;2023-10-19T05:31:26;27.40;;;17.38;;
64938;SDS011;51453;47.738;7.420;2023-10-19T05:33:53;24.83;;;16.45;;
64938;SDS011;51453;47.738;7.420;2023-10-19T05:36:19;22.75;;;16.65;;
64938;SDS011;51453;47.738;7.420;2023-10-19T05:38:44;21.98;;;16.85;;
64938;SDS011;51453;47.738;7.420;2023-10-19T05:41:10;23.60;;;17.42;;
64938;SDS011;51453;47.738;7.420;2023-10-19T05:43:37;24.33;;;16.42;;
64938;SDS011;51453;47.738;7.420;2023-10-19T05:46:03;24.45;;;16.83;;
64938;SDS011;51453;47.738;7.420;2023-10-19T05:48:29;22.63;;;16.65;;
64938;SDS011;51453;47.738;7.420;2023-10-19T05:50:55;23.48;;;17.40;;
64938;SDS011;51453;47.738;7.420;2023-10-19T05:53:21;23.48;;;17.05;;
64938;SDS011;51453;47.738;7.420;2023-10-19T05:55:47;24.98;;;17.40;;
64938;SDS011;51453;47.738;7.420;2023-10-19T05:58:14;23.05;;;16.70;;
64938;SDS011;51453;47.738;7.420;2023-10-19T06:00:40;23.52;;;17.17;;
64938;SDS011;51453;47.738;7.420;2023-10-19T06:03:06;26.10;;;16.90;;
64938;SDS011;51453;47.738;7.420;2023-10-19T06:05:32;26.50;;;17.13;;
64938;SDS011;51453;47.738;7.420;2023-10-19T06:07:58;26.40;;;16.92;;
64938;SDS011;51453;47.738;7.420;2023-10-19T06:10:25;24.10;;;17.13;;
64938;SDS011;51453;47.738;7.420;2023-10-19T06:12:52;23.67;;;16.83;;
64938;SDS011;51453;47.738;7.420;2023-10-19T06:15:19;27.35;;;17.00;;
64938;SDS011;51453;47.738;7.420;2023-10-19T06:17:48;25.40;;;16.43;;
64938;SDS011;51453;47.738;7.420;2023-10-19T06:20:14;22.98;;;16.63;;
64938;SDS011;51453;47.738;7.420;2023-10-19T06:22:56;22.80;;;16.48;;
64938;SDS011;51453;47.738;7.420;2023-10-19T06:25:25;23.20;;;16.58;;
64938;SDS011;51453;47.738;7.420;2023-10-19T06:27:51;25.10;;;17.20;;
64938;SDS011;51453;47.738;7.420;2023-10-19T06:30:18;25.10;;;16.35;;
64938;SDS011;51453;47.738;7.420;2023-10-19T06:32:47;23.40;;;17.02;;
64938;SDS011;51453;47.738;7.420;2023-10-19T06:35:17;22.48;;;16.58;;
64938;SDS011;51453;47.738;7.420;2023-10-19T06:37:44;22.98;;;16.55;;
64938;SDS011;51453;47.738;7.420;2023-10-19T06:40:10;23.35;;;16.63;;
64938;SDS011;51453;47.738;7.420;2023-10-19T06:42:38;23.60;;;15.70;;
64938;SDS011;51453;47.738;7.420;2023-10-19T06:45:04;21.35;;;15.75;;
64938;SDS011;51453;47.738;7.420;2023-10-19T06:47:30;21.05;;;15.07;;
64938;SDS011;51453;47.738;7.420;2023-10-19T06:49:56;21.67;;;15.20;;
64938;SDS011;51453;47.738;7.420;2023-10-19T06:52:22;19.48;;;15.23;;
64938;SDS011;51453;47.738;7.420;2023-10-19T06:54:47;19.95;;;14.55;;
64938;SDS011;51453;47.738;7.420;2023-10-19T06:57:13;20.75;;;15.10;;
64938;SDS011;51453;47.738;7.420;2023-10-19T06:59:39;21.65;;;15.30;;
64938;SDS011;51453;47.738;7.420;2023-10-19T07:02:04;19.77;;;14.73;;
64938;SDS011;51453;47.738;7.420;2023-10-19T07:04:32;19.23;;;14.93;;
64938;SDS011;51453;47.738;7.420;2023-10-19T07:06:58;20.85;;;14.32;;
64938;SDS011;51453;47.738;7.420;2023-10-19T07:09:25;20.60;;;14.23;;
64938;SDS011;51453;47.738;7.420;2023-10-19T07:11:51;21.00;;;13.50;;
64938;SDS011;51453;47.738;7.420;2023-10-19T07:14:19;16.90;;;13.13;;
64938;SDS011;51453;47.738;7.420;2023-10-19T07:16:47;18.88;;;13.70;;
64938;SDS011;51453;47.738;7.420;2023-10-19T07:19:14;17.95;;;13.80;;
64938;SDS011;51453;47.738;7.420;2023-10-19T07:21:40;21.50;;;13.35;;
64938;SDS011;51453;47.738;7.420;2023-10-19T07:24:08;18.40;;;14.00;;
64938;SDS011;51453;47.738;7.420;2023-10-19T07:26:36;17.67;;;12.65;;
64938;SDS011;51453;47.738;7.420;2023-10-19T07:29:08;18.80;;;12.95;;
64938;SDS011;51453;47.738;7.420;2023-10-19T07:31:35;18.58;;;13.10;;
64938;SDS011;51453;47.738;7.420;2023-10-19T07:34:01;19.88;;;14.15;;
64938;SDS011;51453;47.738;7.420;2023-10-19T07:36:28;18.23;;;13.18;;
64938;SDS011;51453;47.738;7.420;2023-10-19T07:38:54;17.30;;;13.25;;
64938;SDS011;51453;47.738;7.420;2023-10-19T07:41:20;17.77;;;13.20;;
64938;SDS011;51453;47.738;7.420;2023-10-19T07:43:46;19.95;;;14.27;;
64938;SDS011;51453;47.738;7.420;2023-10-19T07:46:12;22.30;;;14.25;;
64938;SDS011;51453;47.738;7.420;2023-10-19T07:48:37;23.75;;;15.18;;
64938;SDS011;51453;47.738;7.420;2023-10-19T07:51:03;19.25;;;15.18;;
64938;SDS011;51453;47.738;7.420;2023-10-19T07:53:29;20.38;;;15.25;;
64938;SDS011;51453;47.738;7.420;2023-10-19T07:55:55;25.05;;;15.93;;
64938;SDS011;51453;47.738;7.420;2023-10-19T07:58:22;27.50;;;16.83;;
64938;SDS011;51453;47.738;7.420;2023-10-19T08:00:48;26.33;;;16.90;;
64938;SDS011;51453;47.738;7.420;2023-10-19T08:03:14;26.80;;;17.48;;
64938;SDS011;51453;47.738;7.420;2023-10-19T08:05:41;29.65;;;18.52;;
64938;SDS011;51453;47.738;7.420;2023-10-19T08:08:07;30.55;;;17.75;;
64938;SDS011;51453;47.738;7.420;2023-10-19T08:10:34;31.98;;;19.92;;
64938;SDS011;51453;47.738;7.420;2023-10-19T08:13:00;27.20;;;18.00;;
64938;SDS011;51453;47.738;7.420;2023-10-19T08:15:26;26.45;;;17.65;;
64938;SDS011;51453;47.738;7.420;2023-10-19T08:17:53;31.05;;;19.38;;
64938;SDS011;51453;47.738;7.420;2023-10-19T08:20:20;27.15;;;18.65;;
64938;SDS011;51453;47.738;7.420;2023-10-19T08:22:48;28.63;;;18.67;;
64938;SDS011;51453;47.738;7.420;2023-10-19T08:25:15;27.75;;;18.20;;
64938;SDS011;51453;47.738;7.420;2023-10-19T08:27:42;31.23;;;18.77;;
64938;SDS011;51453;47.738;7.420;2023-10-19T08:30:13;26.60;;;18.83;;
64938;SDS011;51453;47.738;7.420;2023-10-19T08:32:40;28.50;;;19.67;;
64938;SDS011;51453;47.738;7.420;2023-10-19T08:35:13;27.60;;;19.23;;
64938;SDS011;51453;47.738;7.420;2023-10-19T08:37:39;29.70;;;19.83;;
64938;SDS011;51453;47.738;7.420;2023-10-19T08:40:10;26.92;;;19.02;;
64938;SDS011;51453;47.738;7.420;2023-10-19T08:42:41;29.05;;;18.88;;
64938;SDS011;51453;47.738;7.420;2023-10-19T08:45:07;33.72;;;20.13;;
64938;SDS011;51453;47.738;7.420;2023-10-19T08:50:13;31.80;;;18.85;;
64938;SDS011;51453;47.738;7.420;2023-10-19T08:52:40;33.95;;;19.95;;
64938;SDS011;51453;47.738;7.420;2023-10-19T08:55:08;29.50;;;19.05;;
64938;SDS011;51453;47.738;7.420;2023-10-19T08:57:35;31.00;;;20.08;;
64938;SDS011;51453;47.738;7.420;2023-10-19T09:00:02;26.85;;;18.95;;
64938;SDS011;51453;47.738;7.420;2023-10-19T09:02:31;34.60;;;19.63;;
64938;SDS011;51453;47.738;7.420;2023-10-19T09:04:58;34.72;;;19.65;;
64938;SDS011;51453;47.738;7.420;2023-10-19T09:07:25;28.60;;;17.58;;
64938;SDS011;51453;47.738;7.420;2023-10-19T09:09:55;29.00;;;18.80;;
64938;SDS011;51453;47.738;7.420;2023-10-19T09:12:22;26.05;;;17.05;;
64938;SDS011;51453;47.738;7.420;2023-10-19T09:14:48;32.25;;;17.85;;
64938;SDS011;51453;47.738;7.420;2023-10-19T09:17:15;25.58;;;17.17;;
64938;SDS011;51453;47.738;7.420;2023-10-19T09:19:43;29.75;;;18.70;;
64938;SDS011;51453;47.738;7.420;2023-10-19T09:22:12;25.17;;;17.15;;
64938;SDS011;51453;47.738;7.420;2023-10-19T09:24:50;25.17;;;17.33;;
64938;SDS011;51453;47.738;7.420;2023-10-19T09:27:19;25.85;;;16.67;;
64938;SDS011;51453;47.738;7.420;2023-10-19T09:29:45;32.35;;;16.60;;
64938;SDS011;51453;47.738;7.420;2023-10-19T09:32:12;24.85;;;15.40;;
64938;SDS011;51453;47.738;7.420;2023-10-19T09:34:40;31.77;;;16.30;;
64938;SDS011;51453;47.738;7.420;2023-10-19T09:37:08;25.25;;;15.55;;
64938;SDS011;51453;47.738;7.420;2023-10-19T09:39:35;34.97;;;17.15;;
64938;SDS011;51453;47.738;7.420;2023-10-19T09:44:43;35.45;;;18.88;;
64938;SDS011;51453;47.738;7.420;2023-10-19T09:47:10;24.67;;;15.95;;
64938;SDS011;51453;47.738;7.420;2023-10-19T09:49:55;27.58;;;16.95;;
64938;SDS011;51453;47.738;7.420;2023-10-19T09:52:22;21.70;;;15.75;;
64938;SDS011;51453;47.738;7.420;2023-10-19T09:57:27;32.05;;;18.10;;
64938;SDS011;51453;47.738;7.420;2023-10-19T10:00:16;24.92;;;15.57;;
64938;SDS011;51453;47.738;7.420;2023-10-19T10:02:48;22.08;;;14.70;;
64938;SDS011;51453;47.738;7.420;2023-10-19T10:10:46;24.83;;;15.63;;
64938;SDS011;51453;47.738;7.420;2023-10-19T10:15:59;22.45;;;16.17;;
64938;SDS011;51453;47.738;7.420;2023-10-19T10:18:31;29.67;;;17.52;;
64938;SDS011;51453;47.738;7.420;2023-10-19T10:21:13;27.25;;;16.88;;
64938;SDS011;51453;47.738;7.420;2023-10-19T10:26:09;28.20;;;17.73;;
64938;SDS011;51453;47.738;7.420;2023-10-19T10:28:35;30.90;;;17.58;;
64938;SDS011;51453;47.738;7.420;2023-10-19T10:33:49;27.27;;;17.15;;
64938;SDS011;51453;47.738;7.420;2023-10-19T10:36:17;30.58;;;19.20;;
64938;SDS011;51453;47.738;7.420;2023-10-19T10:38:44;28.55;;;17.75;;
64938;SDS011;51453;47.738;7.420;2023-10-19T10:41:19;22.08;;;16.13;;
64938;SDS011;51453;47.738;7.420;2023-10-19T10:43:56;23.75;;;16.50;;
64938;SDS011;51453;47.738;7.420;2023-10-19T10:46:23;23.70;;;16.67;;
64938;SDS011;51453;47.738;7.420;2023-10-19T10:48:50;31.55;;;19.77;;
64938;SDS011;51453;47.738;7.420;2023-10-19T10:53:47;28.63;;;17.65;;
64938;SDS011;51453;47.738;7.420;2023-10-19T10:56:13;27.58;;;17.52;;
64938;SDS011;51453;47.738;7.420;2023-10-19T10:58:39;25.02;;;17.65;;
64938;SDS011;51453;47.738;7.420;2023-10-19T11:01:06;32.10;;;18.48;;
64938;SDS011;51453;47.738;7.420;2023-10-19T11:03:32;30.80;;;18.58;;
64938;SDS011;51453;47.738;7.420;2023-10-19T11:06:06;24.25;;;16.92;;
64938;SDS011;51453;47.738;7.420;2023-10-19T11:08:36;23.35;;;16.65;;
64938;SDS011;51453;47.738;7.420;2023-10-19T11:11:04;25.88;;;17.48;;
64938;SDS011;51453;47.738;7.420;2023-10-19T11:13:36;26.30;;;16.33;;
64938;SDS011;51453;47.738;7.420;2023-10-19T11:16:04;26.02;;;15.77;;
64938;SDS011;51453;47.738;7.420;2023-10-19T11:18:34;25.33;;;16.35;;
64938;SDS011;51453;47.738;7.420;2023-10-19T11:21:14;21.30;;;14.60;;
64938;SDS011;51453;47.738;7.420;2023-10-19T11:23:49;27.92;;;15.98;;
64938;SDS011;51453;47.738;7.420;2023-10-19T11:26:19;25.17;;;14.15;;
64938;SDS011;51453;47.738;7.420;2023-10-19T11:28:46;19.48;;;13.75;;
64938;SDS011;51453;47.738;7.420;2023-10-19T11:31:20;21.45;;;14.65;;
64938;SDS011;51453;47.738;7.420;2023-10-19T11:33:49;15.38;;;12.60;;
64938;SDS011;51453;47.738;7.420;2023-10-19T11:36:17;18.63;;;13.05;;
64938;SDS011;51453;47.738;7.420;2023-10-19T11:38:44;19.35;;;12.88;;
64938;SDS011;51453;47.738;7.420;2023-10-19T11:41:11;15.20;;;12.15;;
64938;SDS011;51453;47.738;7.420;2023-10-19T11:43:38;21.17;;;14.43;;
64938;SDS011;51453;47.738;7.420;2023-10-19T11:46:07;20.70;;;13.65;;
64938;SDS011;51453;47.738;7.420;2023-10-19T11:48:33;20.13;;;13.38;;
64938;SDS011;51453;47.738;7.420;2023-10-19T11:51:01;16.27;;;13.20;;
64938;SDS011;51453;47.738;7.420;2023-10-19T11:53:30;17.10;;;12.57;;
64938;SDS011;51453;47.738;7.420;2023-10-19T11:56:00;18.58;;;12.30;;
64938;SDS011;51453;47.738;7.420;2023-10-19T11:58:35;25.23;;;14.52;;
64938;SDS011;51453;47.738;7.420;2023-10-19T12:01:02;24.98;;;13.38;;
64938;SDS011;51453;47.738;7.420;2023-10-19T12:03:37;21.15;;;13.77;;
64938;SDS011;51453;47.738;7.420;2023-10-19T12:06:06;19.98;;;12.55;;
64938;SDS011;51453;47.738;7.420;2023-10-19T12:08:36;18.50;;;12.20;;
64938;SDS011;51453;47.738;7.420;2023-10-19T12:11:03;17.80;;;11.93;;
64938;SDS011;51453;47.738;7.420;2023-10-19T12:13:32;13.95;;;11.73;;
64938;SDS011;51453;47.738;7.420;2023-10-19T12:15:58;17.73;;;12.00;;
64938;SDS011;51453;47.738;7.420;2023-10-19T12:18:24;16.65;;;11.57;;
64938;SDS011;51453;47.738;7.420;2023-10-19T12:20:53;15.00;;;10.93;;
64938;SDS011;51453;47.738;7.420;2023-10-19T12:23:24;13.82;;;10.82;;
64938;SDS011;51453;47.738;7.420;2023-10-19T12:25:50;14.27;;;11.18;;
64938;SDS011;51453;47.738;7.420;2023-10-19T12:28:16;13.93;;;10.93;;
64938;SDS011;51453;47.738;7.420;2023-10-19T12:30:42;24.73;;;13.48;;
64938;SDS011;51453;47.738;7.420;2023-10-19T12:33:08;18.63;;;12.55;;
64938;SDS011;51453;47.738;7.420;2023-10-19T12:35:40;23.13;;;13.35;;
64938;SDS011;51453;47.738;7.420;2023-10-19T12:38:10;14.57;;;10.65;;
64938;SDS011;51453;47.738;7.420;2023-10-19T12:40:42;17.70;;;12.18;;
64938;SDS011;51453;47.738;7.420;2023-10-19T12:43:09;16.95;;;12.30;;
64938;SDS011;51453;47.738;7.420;2023-10-19T12:45:35;17.45;;;11.73;;
64938;SDS011;51453;47.738;7.420;2023-10-19T12:48:05;15.95;;;11.63;;
64938;SDS011;51453;47.738;7.420;2023-10-19T12:50:31;18.05;;;12.50;;
64938;SDS011;51453;47.738;7.420;2023-10-19T12:52:59;17.42;;;12.27;;
64938;SDS011;51453;47.738;7.420;2023-10-19T12:55:25;18.00;;;12.32;;
64938;SDS011;51453;47.738;7.420;2023-10-19T12:57:52;19.17;;;12.00;;
64938;SDS011;51453;47.738;7.420;2023-10-19T13:00:18;24.67;;;13.48;;
64938;SDS011;51453;47.738;7.420;2023-10-19T13:03:01;18.98;;;13.60;;
64938;SDS011;51453;47.738;7.420;2023-10-19T13:05:33;26.33;;;14.18;;
64938;SDS011;51453;47.738;7.420;2023-10-19T13:08:00;27.75;;;15.45;;
64938;SDS011;51453;47.738;7.420;2023-10-19T13:10:30;23.75;;;14.27;;
64938;SDS011;51453;47.738;7.420;2023-10-19T13:13:00;19.48;;;13.18;;
64938;SDS011;51453;47.738;7.420;2023-10-19T13:15:33;17.88;;;13.35;;
64938;SDS011;51453;47.738;7.420;2023-10-19T13:18:01;23.30;;;13.88;;
64938;SDS011;51453;47.738;7.420;2023-10-19T13:20:31;18.67;;;11.90;;
64938;SDS011;51453;47.738;7.420;2023-10-19T13:23:03;17.67;;;13.20;;
64938;SDS011;51453;47.738;7.420;2023-10-19T13:25:46;16.92;;;12.30;;
64938;SDS011;51453;47.738;7.420;2023-10-19T13:28:15;18.45;;;12.32;;
64938;SDS011;51453;47.738;7.420;2023-10-19T13:30:45;18.23;;;12.57;;
64938;SDS011;51453;47.738;7.420;2023-10-19T13:33:20;16.80;;;12.55;;
64938;SDS011;51453;47.738;7.420;2023-10-19T13:35:47;19.38;;;13.00;;
64938;SDS011;51453;47.738;7.420;2023-10-19T13:38:13;18.08;;;13.30;;
64938;SDS011;51453;47.738;7.420;2023-10-19T13:40:41;28.48;;;14.80;;
64938;SDS011;51453;47.738;7.420;2023-10-19T13:43:07;21.75;;;14.77;;
64938;SDS011;51453;47.738;7.420;2023-10-19T13:45:39;28.00;;;14.63;;
64938;SDS011;51453;47.738;7.420;2023-10-19T13:48:06;23.20;;;13.98;;
64938;SDS011;51453;47.738;7.420;2023-10-19T13:50:33;25.58;;;13.95;;
64938;SDS011;51453;47.738;7.420;2023-10-19T13:53:00;16.77;;;13.52;;
64938;SDS011;51453;47.738;7.420;2023-10-19T13:55:27;15.50;;;12.45;;
64938;SDS011;51453;47.738;7.420;2023-10-19T13:57:53;15.95;;;12.77;;
64938;SDS011;51453;47.738;7.420;2023-10-19T14:00:21;17.73;;;12.85;;
64938;SDS011;51453;47.738;7.420;2023-10-19T14:02:52;15.82;;;12.90;;
64938;SDS011;51453;47.738;7.420;2023-10-19T14:05:19;21.00;;;13.75;;
64938;SDS011;51453;47.738;7.420;2023-10-19T14:07:48;17.98;;;14.15;;
64938;SDS011;51453;47.738;7.420;2023-10-19T14:10:14;26.05;;;15.50;;
64938;SDS011;51453;47.738;7.420;2023-10-19T14:12:40;20.90;;;14.18;;
64938;SDS011;51453;47.738;7.420;2023-10-19T14:15:13;20.65;;;14.00;;
64938;SDS011;51453;47.738;7.420;2023-10-19T14:17:40;20.55;;;14.43;;
64938;SDS011;51453;47.738;7.420;2023-10-19T14:20:07;21.95;;;15.23;;
64938;SDS011;51453;47.738;7.420;2023-10-19T14:22:40;18.67;;;14.38;;
64938;SDS011;51453;47.738;7.420;2023-10-19T14:25:09;20.25;;;15.05;;
64938;SDS011;51453;47.738;7.420;2023-10-19T14:27:39;21.20;;;15.13;;
64938;SDS011;51453;47.738;7.420;2023-10-19T14:30:06;20.20;;;14.93;;
64938;SDS011;51453;47.738;7.420;2023-10-19T14:32:35;21.60;;;15.77;;
64938;SDS011;51453;47.738;7.420;2023-10-19T14:35:00;20.67;;;15.35;;
64938;SDS011;51453;47.738;7.420;2023-10-19T14:37:26;22.85;;;16.33;;
64938;SDS011;51453;47.738;7.420;2023-10-19T14:39:52;22.98;;;17.67;;
64938;SDS011;51453;47.738;7.420;2023-10-19T14:42:18;24.30;;;17.70;;
64938;SDS011;51453;47.738;7.420;2023-10-19T14:44:44;24.92;;;18.02;;
64938;SDS011;51453;47.738;7.420;2023-10-19T14:47:09;22.58;;;17.25;;
64938;SDS011;51453;47.738;7.420;2023-10-19T14:49:35;20.92;;;15.60;;
64938;SDS011;51453;47.738;7.420;2023-10-19T14:52:01;25.55;;;15.48;;
64938;SDS011;51453;47.738;7.420;2023-10-19T14:54:27;18.02;;;14.45;;
64938;SDS011;51453;47.738;7.420;2023-10-19T14:56:53;20.75;;;14.77;;
64938;SDS011;51453;47.738;7.420;2023-10-19T14:59:19;17.85;;;13.15;;